In Rescue
 
Open Full Screen Window  High Contrast Mode
Wind Gusting 00 knots
09
March 01, 2024 5:06 PM EST
Weather Information
Wind Direction
  160 °
Wind Speed
  09 kt (10 mph)
Wind Gust
  00 kt (0 mph)
Altimeter
30.15 in
Visibility
10 SM
Temperature
06° C
43° F
Dewpoint
-07° C
19° F
Humidity
39%
Sky Condition
Overcast @ 7,500 ft
Scattered @ 6,000 ft
VFR

METAR KOEB 012206Z AUTO 16009KT 10SM SCT060 OVC075 06/M07 A3015 RMK AO2 T00601066

FAA Disclaimer: The data displayed is for advisory purposes only and is not to be used for flight planning or operations.